Portada
METAR-TAF:

METAR-TAF

Aeroports :

Kulu / Manali, Índia

latitud: 31-52-36N, longitud: 77-09-16E, altitud: 1089 m

METAR: manca

Hora: 16:37 (11:07 UTC)

Pronòstic

L'informe es va fer fa 6 hores i 7 minuts, a les 05:00 UTC
Pronòstic vàlid del 25 a les 06 UTC al 25 a les 15 UTC
Vent 2 kt del Sud/Sud-Est
Visibilitat: 6000 m
Escasses núvols a una alçada de 3000 ft
Núvols disperses a una alçada de 9000 ft
Temporalment
l' 25 a les 07 UTC al 25 a les 11 UTC
Vent 8 kt del Sud-Oest amb ràfegues de 18 kt
Visibilitat: 2000 m
Escasses núvols a una alçada de 3000 ft, Cumulonimbus.
Núvols disperses a una alçada de 8000 ft
tempesta, pluja

TAF: VIBR 250500Z 2506/2515 16002KT 6000 FEW030 SCT090 TEMPO 2507/2511 23008G18KT 2000 -TSRA FEW030CB SCT080

Observacions i pronòstics meteorològics de més de 4000 aeroports (METAR i TAF).

Les estacions disponibles són els punts grocs i vermells al mapa.

Posi el ratolí al punt desitjat per veure el nom de l'estació.

Feu clic per veure les observacions i els pronòstics meteorològics.

Per canviar el mapa: feu clic els botons verds amb una creu de color negre per apropar; al botó verd amb un guió per allunyar la imatge; o en les fletxes verdes per a mapes adjacents.


METAR-TAF: